Карточка аэропорта USTR

Внимание!
Информация на этой странице в стадии наполнения.
Если вы не увидели какой-то информации, или заметили неточность - пожалуйста сообщите нам!
Спасибо!
Команда RU-STAFF
Название аэропортаРощино
Название аэропорта (англ.)Roshschino
Превышение378 ft. (115.2 m.)
Координаты57°10.098', 65°19.002'
Высота перехода700m
Эшелон переходаFL040
Коды ответчика5101-5137
Зона ОрВДТюмень РПИ (USTV)
Данные METARUSTR 270430Z 24004MPS 9999 OVC018 M05/M08 Q1014 R21/090065 R30/090065 TEMPO -FZRA
Проноз погоды (TAF)USTR 270155Z 2703/2803 25005G10MPS 9999 BKN016CB TEMPO 2703/2706 24012MPS 3100 -SHSN -FZRA DRSN SCT007 BKN016CB FM270600 24006G12MPS 3100 -SHSN DRSN BKN007 BKN016CB TEMPO 2706/2718 23014MPS 1000 SHSN BLSN VV004
NOTAMshow/hide NOTAM
AWOS   TABLE

Информация о ВПП

ВПП Длина ВПП (м.) Покрытие Курс ВПП Частота ILS
122704Асфальтобетон121 
302704Асфальтобетон301 
033003Асфальтобетон34108.3
213003Асфальтобетон214110.7

Диспетчерские позиции

Позывной Наименование органа УВД Частота
USTR_GNDТюмень-Руление119.000
USTR_R_APPТюмень-Круг126.100
USTR_TWRТюмень-Старт118.200



Спутниковое изображение